Time;durP1;ratioP1;P1;durP2;ratioP2;P2;SDS_P1;SDS_P2;PMS_P1;PMS_P2;Temp;Humidity;BMP_temperature;BMP_pressure;BME280_temperature;BME280_humidity;BME280_pressure;Samples;Min_cycle;Max_cycle;Signal;HPM_P1;HPM_P2
2024/02/29 00:00:11;;;;;;;19.80;15.10;;;;;;;7.55;93.08;100663.94;103149;1268;97870;-75
2024/02/29 00:02:59;;;;;;;18.70;14.50;;;;;;;7.56;93.03;100664.80;103431;1259;138586;-75
2024/02/29 00:05:26;;;;;;;20.00;15.50;;;;;;;7.56;93.05;100665.30;103007;1256;106775;-72
2024/02/29 00:07:53;;;;;;;19.80;15.20;;;;;;;7.58;93.12;100669.61;103107;1260;138698;-74
2024/02/29 00:10:20;;;;;;;19.80;14.50;;;;;;;7.60;93.05;100671.14;103194;1258;108297;-76
2024/02/29 00:12:47;;;;;;;18.60;14.80;;;;;;;7.60;92.83;100668.55;103170;1259;96224;-74
2024/02/29 00:15:14;;;;;;;19.70;14.60;;;;;;;7.59;92.61;100672.55;103098;1258;138590;-75
2024/02/29 00:17:42;;;;;;;20.50;14.40;;;;;;;7.59;92.83;100676.34;103080;1258;107047;-73
2024/02/29 00:20:11;;;;;;;20.70;15.20;;;;;;;7.62;92.79;100674.92;103175;1258;138520;-74
2024/02/29 00:22:38;;;;;;;18.00;14.10;;;;;;;7.64;92.76;100674.72;103675;1260;105668;-73
2024/02/29 00:25:06;;;;;;;18.70;14.70;;;;;;;7.65;92.68;100674.70;103027;1254;138696;-73
2024/02/29 00:27:33;;;;;;;21.10;14.60;;;;;;;7.66;92.63;100673.83;103334;1260;110741;-73
2024/02/29 00:30:00;;;;;;;19.20;14.30;;;;;;;7.67;92.45;100675.02;103238;1260;107483;-73
2024/02/29 00:32:28;;;;;;;17.40;14.10;;;;;;;7.69;92.47;100677.08;103085;1260;139554;-74
2024/02/29 00:34:55;;;;;;;20.50;14.70;;;;;;;7.69;92.44;100673.26;103443;1254;107558;-74
2024/02/29 00:37:22;;;;;;;17.70;14.00;;;;;;;7.68;92.52;100669.11;103039;1256;138696;-74
2024/02/29 00:39:49;;;;;;;22.10;15.00;;;;;;;7.70;92.31;100672.37;103195;1254;111677;-74
2024/02/29 00:42:16;;;;;;;19.40;15.30;;;;;;;7.70;92.26;100671.68;103807;1260;108044;-73
2024/02/29 00:44:43;;;;;;;19.20;14.30;;;;;;;7.70;92.07;100675.48;103114;1258;139454;-74
2024/02/29 00:47:11;;;;;;;18.50;14.50;;;;;;;7.69;92.16;100671.02;103198;1254;107268;-74
2024/02/29 00:49:39;;;;;;;18.80;15.10;;;;;;;7.73;92.16;100672.02;103607;1254;138659;-74
2024/02/29 00:52:07;;;;;;;18.60;14.40;;;;;;;7.73;92.09;100669.41;103199;1254;110476;-74
2024/02/29 00:54:34;;;;;;;18.40;14.50;;;;;;;7.74;92.12;100667.49;103322;1254;107170;-74
2024/02/29 00:57:02;;;;;;;18.30;14.50;;;;;;;7.74;91.88;100671.83;104447;1254;139641;-74
2024/02/29 00:59:29;;;;;;;20.30;14.30;;;;;;;7.72;91.72;100667.69;103570;1254;108302;-74
2024/02/29 01:01:56;;;;;;;21.20;15.40;;;;;;;7.70;91.77;100666.33;103820;1258;139950;-74
2024/02/29 01:04:24;;;;;;;20.80;15.80;;;;;;;7.68;91.74;100670.33;103081;1260;109958;-74
2024/02/29 01:06:51;;;;;;;20.30;15.50;;;;;;;7.69;91.96;100673.59;103089;1255;108538;-74
2024/02/29 01:09:20;;;;;;;21.10;15.30;;;;;;;7.68;92.12;100675.52;103249;1260;97803;-74
2024/02/29 01:11:48;;;;;;;19.90;15.30;;;;;;;7.68;92.14;100681.23;103737;1254;106993;-74
2024/02/29 01:14:15;;;;;;;24.00;16.70;;;;;;;7.67;92.15;100677.61;103148;1255;138592;-75
2024/02/29 01:16:42;;;;;;;23.00;17.30;;;;;;;7.67;92.30;100679.52;103254;1255;112219;-74
2024/02/29 01:19:09;;;;;;;25.70;17.10;;;;;;;7.67;92.30;100683.67;103211;1254;140780;-74
2024/02/29 01:21:38;;;;;;;21.40;16.50;;;;;;;7.68;92.37;100686.95;103207;1257;97845;-74
2024/02/29 01:24:06;;;;;;;22.00;16.30;;;;;;;7.69;92.43;100693.00;103337;1254;108085;-75
2024/02/29 01:26:34;;;;;;;24.00;17.60;;;;;;;7.68;92.48;100694.73;103150;1257;138498;-74
2024/02/29 01:29:01;;;;;;;22.00;16.70;;;;;;;7.68;92.43;100694.56;103266;1254;110680;-74
2024/02/29 01:31:28;;;;;;;21.80;16.50;;;;;;;7.67;92.32;100693.54;103168;1255;138951;-75
2024/02/29 01:33:55;;;;;;;23.30;16.20;;;;;;;7.66;92.38;100688.02;103305;1254;97941;-75
2024/02/29 01:36:22;;;;;;;22.30;16.60;;;;;;;7.65;92.43;100686.83;103222;1254;108018;-74
2024/02/29 01:38:49;;;;;;;22.50;16.20;;;;;;;7.64;92.54;100683.71;103235;1254;138812;-74
2024/02/29 01:41:18;;;;;;;22.60;16.00;;;;;;;7.64;92.59;100682.84;103312;1255;111090;-74
2024/02/29 01:43:53;;;;;;;22.50;16.50;;;;;;;7.64;92.68;100683.19;103188;1257;139697;-74
2024/02/29 01:46:21;;;;;;;23.80;16.60;;;;;;;7.64;92.59;100676.28;103236;1255;97789;-74
2024/02/29 01:48:48;;;;;;;21.60;17.20;;;;;;;7.63;92.58;100669.36;103310;1257;107470;-74
2024/02/29 01:51:16;;;;;;;22.70;17.40;;;;;;;7.61;92.55;100673.55;103132;1257;138838;-73
2024/02/29 01:53:44;;;;;;;24.40;17.00;;;;;;;7.59;92.67;100676.70;103283;1257;111430;-74
2024/02/29 01:56:13;;;;;;;25.20;17.80;;;;;;;7.60;92.61;100676.69;103053;1258;138556;-73
2024/02/29 01:58:41;;;;;;;26.00;18.80;;;;;;;7.58;92.58;100675.32;103297;1254;97721;-73
2024/02/29 02:01:09;;;;;;;26.90;19.70;;;;;;;7.57;92.60;100679.66;103014;1261;138532;-73
2024/02/29 02:03:37;;;;;;;25.40;18.80;;;;;;;7.58;92.88;100681.38;103274;1259;97681;-73
2024/02/29 02:06:05;;;;;;;26.60;19.30;;;;;;;7.58;92.82;100682.23;103292;1254;110929;-73
2024/02/29 02:08:34;;;;;;;25.70;19.00;;;;;;;7.58;92.91;100683.29;103129;1260;138486;-73
2024/02/29 02:11:00;;;;;;;26.60;18.90;;;;;;;7.58;92.90;100681.90;103202;1256;98008;-72
2024/02/29 02:13:27;;;;;;;26.40;19.70;;;;;;;7.60;93.06;100679.63;102891;1260;138540;-73
2024/02/29 02:15:54;;;;;;;28.90;21.20;;;;;;;7.60;93.08;100684.81;103194;1259;97811;-73
2024/02/29 02:18:21;;;;;;;28.40;21.40;;;;;;;7.59;93.00;100681.54;103218;1254;109308;-73
2024/02/29 02:20:49;;;;;;;28.60;21.90;;;;;;;7.59;93.04;100681.20;103084;1254;138529;-72
2024/02/29 02:23:16;;;;;;;28.30;20.40;;;;;;;7.59;93.16;100677.05;103197;1254;97877;-73
2024/02/29 02:25:43;;;;;;;31.30;21.10;;;;;;;7.60;93.12;100677.36;103092;1254;138384;-72
2024/02/29 02:28:11;;;;;;;32.40;23.00;;;;;;;7.59;92.91;100678.59;103104;1255;97705;-72
2024/02/29 02:30:39;;;;;;;33.40;24.10;;;;;;;7.56;92.77;100678.81;103117;1254;110752;-72
2024/02/29 02:33:06;;;;;;;31.40;23.70;;;;;;;7.51;92.63;100674.19;103146;1260;139382;-72
2024/02/29 02:35:34;;;;;;;32.60;24.00;;;;;;;7.46;92.72;100668.03;103275;1258;97707;-72
2024/02/29 02:38:03;;;;;;;35.80;25.30;;;;;;;7.42;92.75;100668.95;103394;1258;138368;-72
2024/02/29 02:40:30;;;;;;;33.60;24.10;;;;;;;7.39;92.89;100673.84;103197;1260;97821;-72
2024/02/29 02:42:57;;;;;;;34.30;24.80;;;;;;;7.37;93.16;100673.34;103514;1254;138525;-72
2024/02/29 02:45:25;;;;;;;35.60;25.80;;;;;;;7.34;93.11;100671.12;103232;1254;108235;-72
2024/02/29 02:47:52;;;;;;;36.00;24.40;;;;;;;7.32;93.30;100664.55;103293;1254;97802;-72
2024/02/29 02:50:19;;;;;;;36.00;25.10;;;;;;;7.33;93.30;100663.86;103140;1259;138651;-72
2024/02/29 02:52:46;;;;;;;37.10;25.90;;;;;;;7.33;93.40;100664.38;103246;1258;97842;-72
2024/02/29 02:55:13;;;;;;;36.00;24.90;;;;;;;7.34;93.51;100663.15;103066;1254;138621;-72
2024/02/29 02:57:40;;;;;;;34.80;24.20;;;;;;;7.34;93.54;100665.58;103438;1254;107769;-72
2024/02/29 03:00:11;;;;;;;34.70;24.10;;;;;;;7.34;93.51;100663.67;103251;1257;97819;-72
2024/02/29 03:02:39;;;;;;;37.60;24.50;;;;;;;7.37;93.65;100664.17;103007;1254;138408;-72
2024/02/29 03:05:08;;;;;;;33.10;24.30;;;;;;;7.37;93.63;100665.21;103378;1254;97787;-72
2024/02/29 03:07:36;;;;;;;35.40;24.40;;;;;;;7.36;93.60;100661.93;103646;1258;139696;-72
2024/02/29 03:10:03;;;;;;;33.10;23.60;;;;;;;7.37;93.57;100663.65;103092;1259;108317;-73
2024/02/29 03:12:30;;;;;;;32.50;23.80;;;;;;;7.38;93.76;100663.64;103080;1255;98304;-73
2024/02/29 03:14:57;;;;;;;34.10;24.70;;;;;;;7.39;93.74;100664.16;102927;1257;139061;-72
2024/02/29 03:17:24;;;;;;;34.20;24.10;;;;;;;7.38;93.67;100661.91;103087;1268;97878;-74
2024/02/29 03:19:51;;;;;;;34.50;23.80;;;;;;;7.40;93.65;100666.73;102983;1260;138891;-72
2024/02/29 03:22:18;;;;;;;34.10;23.70;;;;;;;7.41;93.66;100668.80;103219;1254;107641;-72
2024/02/29 03:24:46;;;;;;;35.60;24.00;;;;;;;7.41;93.72;100671.90;103674;1254;1002455;-72
2024/02/29 03:27:13;;;;;;;34.70;23.70;;;;;;;7.44;93.70;100673.42;103136;1254;139142;-72
2024/02/29 03:29:40;;;;;;;34.60;23.60;;;;;;;7.44;93.51;100668.59;103185;1259;98471;-73
2024/02/29 03:32:08;;;;;;;33.80;22.70;;;;;;;7.43;93.44;100669.98;103130;1254;138412;-71
2024/02/29 03:34:35;;;;;;;35.60;23.30;;;;;;;7.42;93.25;100666.36;103192;1254;107525;-72
2024/02/29 03:37:02;;;;;;;36.10;23.60;;;;;;;7.39;93.32;100663.46;103061;1254;138731;-72
2024/02/29 03:39:29;;;;;;;36.30;23.30;;;;;;;7.39;93.53;100661.55;103044;1254;108014;-72
2024/02/29 03:41:56;;;;;;;34.80;23.50;;;;;;;7.42;93.74;100662.21;103182;1260;97822;-72
2024/02/29 03:44:23;;;;;;;35.00;23.40;;;;;;;7.43;93.67;100660.98;103088;1254;138456;-73
2024/02/29 03:46:50;;;;;;;36.10;22.80;;;;;;;7.46;93.72;100663.52;103127;1257;106579;-72
2024/02/29 03:49:17;;;;;;;37.00;23.60;;;;;;;7.48;93.50;100667.14;103125;1259;139724;-74
2024/02/29 03:51:44;;;;;;;37.00;23.50;;;;;;;7.48;93.16;100660.05;103242;1258;107299;-72
2024/02/29 03:54:11;;;;;;;37.60;23.80;;;;;;;7.45;93.00;100660.61;103285;1254;97699;-73
2024/02/29 03:56:38;;;;;;;34.90;22.80;;;;;;;7.43;92.87;100656.48;103217;1254;139400;-74
2024/02/29 03:59:05;;;;;;;35.90;22.40;;;;;;;7.41;92.68;100660.66;103177;1254;106464;-73
2024/02/29 04:01:32;;;;;;;34.00;22.10;;;;;;;7.39;92.70;100666.07;103050;1255;138721;-73
2024/02/29 04:03:59;;;;;;;32.00;21.10;;;;;;;7.36;92.52;100662.27;103187;1257;107547;-73
2024/02/29 04:06:27;;;;;;;34.50;23.10;;;;;;;7.34;92.49;100661.42;103220;1256;97698;-72
2024/02/29 04:08:54;;;;;;;37.90;23.60;;;;;;;7.33;92.58;100663.86;103227;1254;139383;-72
2024/02/29 04:11:22;;;;;;;40.30;23.90;;;;;;;7.32;92.53;100662.14;103254;1259;107816;-72
2024/02/29 04:13:49;;;;;;;37.70;24.40;;;;;;;7.31;92.66;100663.02;104022;1256;138503;-73
2024/02/29 04:16:17;;;;;;;40.90;25.80;;;;;;;7.30;92.63;100660.44;103123;1254;107175;-73
2024/02/29 04:18:44;;;;;;;39.00;24.10;;;;;;;7.30;92.71;100659.58;102960;1256;97812;-72
2024/02/29 04:21:11;;;;;;;37.30;24.50;;;;;;;7.29;92.63;100655.96;103019;1259;138455;-73
2024/02/29 04:23:38;;;;;;;43.20;24.40;;;;;;;7.28;92.77;100653.36;103151;1260;107864;-73
2024/02/29 04:26:05;;;;;;;38.90;24.70;;;;;;;7.28;92.80;100656.31;103088;1254;139860;-73
2024/02/29 04:28:32;;;;;;;37.20;24.20;;;;;;;7.30;92.85;100653.69;103177;1254;107077;-72
2024/02/29 04:30:59;;;;;;;35.60;23.40;;;;;;;7.32;92.76;100655.23;103074;1257;138761;-73
2024/02/29 04:33:26;;;;;;;39.00;25.10;;;;;;;7.33;92.79;100655.73;103157;1255;109673;-73
2024/02/29 04:35:53;;;;;;;41.90;26.20;;;;;;;7.36;92.70;100656.56;103063;1259;107454;-73
2024/02/29 04:38:20;;;;;;;40.40;25.10;;;;;;;7.38;92.67;100659.50;103064;1259;138837;-73
2024/02/29 04:40:47;;;;;;;39.20;25.40;;;;;;;7.39;92.53;100662.06;103142;1258;108436;-71
2024/02/29 04:43:16;;;;;;;35.70;24.20;;;;;;;7.41;92.45;100662.56;103056;1258;138644;-72
2024/02/29 04:45:43;;;;;;;36.70;22.60;;;;;;;7.43;92.35;100663.93;103170;1255;111002;-73
2024/02/29 04:48:11;;;;;;;33.50;22.90;;;;;;;7.43;92.15;100661.52;103123;1259;107740;-72
2024/02/29 04:50:38;;;;;;;36.10;23.20;;;;;;;7.41;91.94;100659.80;103105;1254;138570;-74
2024/02/29 04:53:05;;;;;;;37.90;24.50;;;;;;;7.39;92.08;100661.91;103151;1257;107369;-74
2024/02/29 04:55:34;;;;;;;33.60;22.90;;;;;;;7.40;92.11;100664.48;102966;1254;138723;-74
2024/02/29 04:58:01;;;;;;;35.90;22.70;;;;;;;7.40;92.02;100666.91;103191;1254;110802;-74
2024/02/29 05:00:28;;;;;;;34.40;22.80;;;;;;;7.40;91.91;100667.58;103107;1254;105941;-73
2024/02/29 05:02:55;;;;;;;36.40;23.20;;;;;;;7.41;92.03;100672.43;102864;1259;138725;-73
2024/02/29 05:05:22;;;;;;;37.00;22.70;;;;;;;7.42;91.99;100676.56;103132;1256;108434;-73
2024/02/29 05:07:49;;;;;;;29.80;20.60;;;;;;;7.41;91.85;100676.74;103005;1260;138568;-73
2024/02/29 05:10:16;;;;;;;30.80;20.50;;;;;;;7.43;91.92;100677.42;103080;1258;110701;-73
2024/02/29 05:12:49;;;;;;;29.10;20.40;;;;;;;7.45;91.85;100676.70;103053;1254;106800;-73
2024/02/29 05:15:19;;;;;;;30.80;20.10;;;;;;;7.44;91.75;100675.67;103128;1254;97696;-73
2024/02/29 05:17:46;;;;;;;30.00;20.80;;;;;;;7.46;91.44;100680.66;103092;1254;107346;-73
2024/02/29 05:20:13;;;;;;;30.60;19.30;;;;;;;7.43;91.33;100680.19;103034;1254;138537;-74
2024/02/29 05:22:40;;;;;;;28.10;18.10;;;;;;;7.44;91.45;100682.08;103151;1256;111454;-73
2024/02/29 05:25:09;;;;;;;27.70;18.10;;;;;;;7.47;91.57;100680.14;102971;1254;139722;-74
2024/02/29 05:27:37;;;;;;;25.10;17.50;;;;;;;7.49;91.58;100683.73;103224;1258;98344;-73
2024/02/29 05:30:05;;;;;;;26.90;17.70;;;;;;;7.49;91.03;100686.84;103223;1254;107468;-73
2024/02/29 05:32:32;;;;;;;25.80;17.90;;;;;;;7.49;90.91;100694.46;103114;1256;140371;-74
2024/02/29 05:34:59;;;;;;;29.50;18.30;;;;;;;7.50;90.92;100697.91;103185;1255;111294;-73
2024/02/29 05:37:26;;;;;;;26.90;17.70;;;;;;;7.49;90.59;100697.23;103086;1256;139755;-74
2024/02/29 05:39:53;;;;;;;26.80;17.90;;;;;;;7.48;90.33;100699.67;103213;1256;97817;-74
2024/02/29 05:42:24;;;;;;;26.00;18.20;;;;;;;7.47;90.21;100702.44;102967;1259;108005;-73
2024/02/29 05:44:51;;;;;;;24.00;17.90;;;;;;;7.47;89.85;100701.77;102958;1254;138619;-74
2024/02/29 05:47:18;;;;;;;19.60;14.20;;;;;;;7.46;89.48;100700.21;103147;1258;110478;-74
2024/02/29 05:49:45;;;;;;;17.00;13.00;;;;;;;7.44;89.26;100703.70;103023;1260;138567;-73
2024/02/29 05:52:12;;;;;;;16.80;12.50;;;;;;;7.40;89.06;100701.15;102977;1258;98349;-73
2024/02/29 05:54:39;;;;;;;15.00;12.10;;;;;;;7.39;88.98;100707.75;103041;1254;108148;-73
2024/02/29 05:57:07;;;;;;;15.20;11.40;;;;;;;7.37;89.25;100710.70;103029;1256;138481;-72
2024/02/29 05:59:34;;;;;;;15.40;11.50;;;;;;;7.39;89.58;100708.79;103191;1254;111513;-73
2024/02/29 06:02:01;;;;;;;13.60;10.30;;;;;;;7.41;89.80;100711.01;103016;1254;138989;-73
2024/02/29 06:04:28;;;;;;;14.20;11.30;;;;;;;7.43;89.66;100705.79;103249;1254;97807;-73
2024/02/29 06:06:56;;;;;;;14.40;10.90;;;;;;;7.45;89.64;100704.72;103207;1258;108866;-73
2024/02/29 06:09:23;;;;;;;14.50;10.70;;;;;;;7.46;89.37;100708.51;103367;1253;97884;-71
2024/02/29 06:11:50;;;;;;;13.70;10.70;;;;;;;7.48;89.39;100713.50;103350;1257;112107;-72
2024/02/29 06:14:17;;;;;;;15.30;11.10;;;;;;;7.50;89.40;100708.46;103143;1254;139377;-74
2024/02/29 06:16:44;;;;;;;15.10;11.90;;;;;;;7.53;89.41;100710.33;103125;1254;97682;-73
2024/02/29 06:19:11;;;;;;;16.70;11.50;;;;;;;7.56;89.25;100705.11;103005;1254;138905;-74
2024/02/29 06:21:38;;;;;;;15.70;12.00;;;;;;;7.58;89.19;100705.27;103162;1258;97813;-72
2024/02/29 06:24:05;;;;;;;16.90;12.60;;;;;;;7.62;89.05;100709.20;103284;1257;110742;-72
2024/02/29 06:26:33;;;;;;;17.10;12.20;;;;;;;7.64;89.06;100710.71;103204;1254;139828;-73
2024/02/29 06:29:01;;;;;;;17.10;13.10;;;;;;;7.67;89.09;100711.02;103329;1256;98323;-75
2024/02/29 06:31:28;;;;;;;18.00;13.20;;;;;;;7.71;89.10;100710.98;103139;1256;138678;-75
2024/02/29 06:33:55;;;;;;;17.80;13.40;;;;;;;7.73;88.98;100709.73;103224;1258;97797;-78
2024/02/29 06:36:22;;;;;;;18.80;13.80;;;;;;;7.76;89.01;100714.03;102953;1254;110237;-77
2024/02/29 06:38:48;;;;;;;18.40;14.10;;;;;;;7.79;88.93;100713.47;103109;1254;139321;-77
2024/02/29 06:41:15;;;;;;;20.60;15.00;;;;;;;7.82;88.93;100714.64;103159;1254;98351;-78
2024/02/29 06:43:42;;;;;;;21.30;14.80;;;;;;;7.84;88.71;100716.16;103042;1258;138504;-76
2024/02/29 06:46:10;;;;;;;20.50;15.60;;;;;;;7.85;88.54;100718.05;103062;1254;97813;-74
2024/02/29 06:48:38;;;;;;;22.90;15.70;;;;;;;7.85;88.44;100718.22;103217;1254;111969;-74
2024/02/29 06:51:06;;;;;;;22.00;15.30;;;;;;;7.86;88.60;100717.68;103118;1254;138866;-75
2024/02/29 06:53:34;;;;;;;22.10;15.50;;;;;;;7.89;88.80;100722.33;103690;1256;97850;-72
2024/02/29 06:56:01;;;;;;;21.00;14.40;;;;;;;7.91;88.66;100724.39;103090;1254;138407;-80
2024/02/29 06:58:28;;;;;;;20.40;15.10;;;;;;;7.93;88.49;100723.33;103240;1254;97817;-82
2024/02/29 07:00:56;;;;;;;22.50;15.20;;;;;;;7.92;88.50;100724.89;103108;1254;111016;-85
2024/02/29 07:03:23;;;;;;;22.20;15.60;;;;;;;7.94;88.52;100722.27;103128;1256;107248;-76
2024/02/29 07:05:50;;;;;;;22.20;15.80;;;;;;;7.94;88.43;100724.18;102382;1258;1003085;-74
2024/02/29 07:08:17;;;;;;;21.70;15.40;;;;;;;7.96;88.48;100729.34;102989;1257;138703;-72
2024/02/29 07:10:45;;;;;;;24.10;16.00;;;;;;;7.98;88.44;100727.23;103288;1254;97829;-75
2024/02/29 07:13:12;;;;;;;22.10;15.60;;;;;;;8.00;88.33;100726.17;102949;1254;138602;-74
2024/02/29 07:15:40;;;;;;;22.40;16.20;;;;;;;8.02;88.72;100727.00;103279;1254;107461;-67
2024/02/29 07:18:10;;;;;;;21.90;16.20;;;;;;;8.09;89.18;100725.52;103283;1254;98392;-67
2024/02/29 07:20:37;;;;;;;23.30;14.80;;;;;;;8.13;89.04;100722.34;104184;1254;138971;-67
2024/02/29 07:23:06;;;;;;;22.40;15.60;;;;;;;8.19;89.37;100726.06;103303;1254;98272;-67
2024/02/29 07:25:33;;;;;;;22.10;15.50;;;;;;;8.23;88.84;100723.58;103769;1255;138712;-67
2024/02/29 07:28:00;;;;;;;21.80;15.60;;;;;;;8.25;88.80;100727.36;103175;1254;108186;-67
2024/02/29 07:30:29;;;;;;;22.00;15.60;;;;;;;8.29;88.76;100727.32;103200;1256;97829;-65
2024/02/29 07:32:57;;;;;;;21.80;16.50;;;;;;;8.30;88.64;100725.39;103122;1254;138567;-67
2024/02/29 07:35:25;;;;;;;26.40;16.00;;;;;;;8.33;88.53;100723.61;102885;1255;97723;-66
2024/02/29 07:37:52;;;;;;;22.20;15.60;;;;;;;8.36;88.54;100726.52;103450;1259;138722;-67
2024/02/29 07:40:21;;;;;;;24.10;15.80;;;;;;;8.40;88.59;100726.61;103925;1254;107623;-68
2024/02/29 07:42:48;;;;;;;31.90;17.70;;;;;;;8.43;88.59;100726.25;103309;1258;97798;-67
2024/02/29 07:45:15;;;;;;;23.00;15.80;;;;;;;8.54;88.94;100733.35;103159;1254;138471;-67
2024/02/29 07:47:47;;;;;;;21.30;16.20;;;;;;;8.61;88.55;100734.97;103273;1258;97796;-76
2024/02/29 07:50:14;;;;;;;21.90;16.40;;;;;;;8.65;88.17;100730.06;102967;1254;139325;-86
2024/02/29 07:52:41;;;;;;;23.90;15.70;;;;;;;8.67;87.70;100732.29;102978;1254;107659;-77
2024/02/29 07:55:10;;;;;;;23.00;15.80;;;;;;;8.67;87.50;100731.41;103025;1256;139977;-77
2024/02/29 07:57:37;;;;;;;23.80;16.50;;;;;;;8.66;87.13;100731.77;103247;1254;107058;-76
2024/02/29 08:00:05;;;;;;;23.20;16.80;;;;;;;8.62;86.71;100730.80;103216;1254;97901;-76
2024/02/29 08:02:36;;;;;;;22.40;16.40;;;;;;;8.56;86.68;100731.92;102997;1258;138408;-79
2024/02/29 08:05:03;;;;;;;20.10;16.20;;;;;;;8.53;86.77;100731.64;103135;1258;107529;-77
2024/02/29 08:07:30;;;;;;;23.60;16.70;;;;;;;8.50;86.73;100732.90;103090;1254;138729;-78
2024/02/29 08:09:58;;;;;;;25.40;17.40;;;;;;;8.47;86.66;100732.09;103250;1254;106741;-76
2024/02/29 08:12:25;;;;;;;27.10;18.30;;;;;;;8.44;86.72;100730.04;103241;1258;97813;-78
2024/02/29 08:14:52;;;;;;;24.90;18.40;;;;;;;8.43;86.71;100731.43;103157;1254;138539;-78
2024/02/29 08:17:19;;;;;;;26.70;19.00;;;;;;;8.40;86.66;100732.17;102975;1254;107162;-79
2024/02/29 08:19:46;;;;;;;28.10;19.40;;;;;;;8.37;86.89;100738.30;103132;1254;139128;-79
2024/02/29 08:22:13;;;;;;;29.50;18.70;;;;;;;8.33;86.77;100741.80;103234;1254;107325;-80
2024/02/29 08:24:40;;;;;;;32.60;19.50;;;;;;;8.28;86.71;100745.00;103100;1256;97782;-76
2024/02/29 08:27:08;;;;;;;25.40;17.60;;;;;;;8.25;86.83;100740.86;103221;1254;138832;-76
2024/02/29 08:29:35;;;;;;;23.90;17.30;;;;;;;8.25;86.84;100733.07;103260;1256;107666;-76
2024/02/29 08:32:02;;;;;;;24.10;16.70;;;;;;;8.25;86.87;100735.49;103048;1254;138531;-75
2024/02/29 08:34:30;;;;;;;22.80;16.30;;;;;;;8.25;86.91;100730.83;103105;1254;107717;-73
2024/02/29 08:36:58;;;;;;;23.30;15.50;;;;;;;8.28;86.92;100731.82;103274;1254;97681;-74
2024/02/29 08:39:25;;;;;;;21.60;15.50;;;;;;;8.32;86.86;100733.32;103164;1254;110756;-75
2024/02/29 08:41:52;;;;;;;23.50;16.30;;;;;;;8.35;86.78;100730.00;103208;1253;107415;-76
2024/02/29 08:44:19;;;;;;;23.80;16.90;;;;;;;8.37;86.73;100728.24;103079;1253;138488;-77
2024/02/29 08:46:46;;;;;;;26.10;16.90;;;;;;;8.40;86.83;100728.35;103244;1253;107989;-76
2024/02/29 08:49:13;;;;;;;21.70;15.80;;;;;;;8.44;87.05;100727.80;103131;1253;138665;-73
2024/02/29 08:51:40;;;;;;;21.80;16.20;;;;;;;8.49;86.76;100729.10;103304;1254;112380;-76
2024/02/29 08:54:07;;;;;;;24.70;16.30;;;;;;;8.52;86.84;100728.19;103245;1253;106849;-76
2024/02/29 08:56:36;;;;;;;24.20;16.50;;;;;;;8.55;86.60;100730.38;103201;1253;138654;-75
2024/02/29 08:59:03;;;;;;;27.10;17.90;;;;;;;8.57;86.70;100727.42;103262;1258;108250;-77
2024/02/29 09:01:30;;;;;;;27.30;17.60;;;;;;;8.58;86.83;100726.86;103105;1253;138861;-78
2024/02/29 09:03:57;;;;;;;26.60;17.50;;;;;;;8.61;86.87;100724.05;103227;1253;110916;-76
2024/02/29 09:06:27;;;;;;;24.00;17.50;;;;;;;8.66;87.05;100722.25;103015;1253;109628;-75
2024/02/29 09:09:07;;;;;;;28.60;19.40;;;;;;;8.73;86.98;100725.59;102803;1256;138836;-75
2024/02/29 09:11:34;;;;;;;26.20;18.60;;;;;;;8.79;87.12;100724.44;102986;1258;109177;-75
2024/02/29 09:14:02;;;;;;;24.80;18.10;;;;;;;8.89;87.17;100721.48;102886;1254;139433;-77
2024/02/29 09:16:29;;;;;;;27.30;18.80;;;;;;;8.97;86.84;100723.95;103090;1256;111276;-75
2024/02/29 09:18:56;;;;;;;25.50;18.20;;;;;;;9.01;86.55;100715.73;103075;1254;105411;-77
2024/02/29 09:21:27;;;;;;;25.60;17.80;;;;;;;9.07;86.12;100719.42;103025;1253;97784;-73
2024/02/29 09:23:54;;;;;;;29.10;18.50;;;;;;;9.09;85.98;100718.34;103068;1253;108345;-73
2024/02/29 09:26:22;;;;;;;25.30;18.00;;;;;;;9.08;85.57;100718.54;102977;1253;139038;-78
2024/02/29 09:28:50;;;;;;;27.30;18.70;;;;;;;9.06;85.56;100717.70;103259;1253;111206;-73
2024/02/29 09:31:17;;;;;;;26.60;19.50;;;;;;;9.03;85.50;100714.30;102960;1258;139066;-72
2024/02/29 09:33:44;;;;;;;28.40;18.30;;;;;;;9.00;85.27;100719.58;103095;1253;97664;-73
2024/02/29 09:36:12;;;;;;;30.70;19.00;;;;;;;8.96;85.40;100720.83;103034;1254;108796;-73
2024/02/29 09:38:39;;;;;;;25.70;19.00;;;;;;;8.92;85.42;100723.85;103188;1253;138860;-73
2024/02/29 09:41:08;;;;;;;28.10;18.80;;;;;;;8.90;85.43;100734.13;103296;1253;110488;-71
2024/02/29 09:43:56;;;;;;;31.00;19.20;;;;;;;8.84;85.36;100734.77;103081;1254;138805;-73
2024/02/29 09:46:24;;;;;;;30.30;19.80;;;;;;;8.81;85.50;100732.05;103268;1253;98337;-74
2024/02/29 09:48:52;;;;;;;28.20;18.30;;;;;;;8.78;85.53;100730.17;103242;1257;108084;-72
2024/02/29 09:51:22;;;;;;;27.60;18.90;;;;;;;8.76;85.79;100730.73;103030;1257;138722;-71
2024/02/29 09:53:53;;;;;;;27.70;19.60;;;;;;;8.77;85.86;100729.66;103324;1253;111619;-72
2024/02/29 09:56:23;;;;;;;27.70;19.80;;;;;;;8.79;85.93;100734.48;103478;1253;140618;-72
2024/02/29 09:58:51;;;;;;;29.60;19.80;;;;;;;8.79;85.87;100733.79;103246;1257;98335;-81
2024/02/29 10:01:22;;;;;;;31.00;19.40;;;;;;;8.79;86.07;100729.45;103192;1253;139636;-79
2024/02/29 10:03:50;;;;;;;30.80;19.30;;;;;;;8.82;86.09;100730.99;103303;1257;97732;-81
2024/02/29 10:06:18;;;;;;;29.80;20.30;;;;;;;8.81;85.98;100731.52;103225;1253;110836;-78
2024/02/29 10:08:45;;;;;;;28.90;20.40;;;;;;;8.82;86.05;100731.17;103206;1253;140875;-74
2024/02/29 10:11:13;;;;;;;28.10;19.30;;;;;;;8.83;86.22;100726.48;103277;1253;97786;-75
2024/02/29 10:13:42;;;;;;;31.50;20.10;;;;;;;8.84;86.28;100722.45;103170;1256;138944;-74
2024/02/29 10:16:11;;;;;;;27.80;19.50;;;;;;;8.86;86.21;100720.85;104420;1253;95914;-76
2024/02/29 10:18:39;;;;;;;31.20;20.10;;;;;;;8.85;86.20;100723.12;104418;1253;111597;-74
2024/02/29 10:21:11;;;;;;;33.20;21.30;;;;;;;8.83;86.24;100721.95;103112;1254;138883;-75
2024/02/29 10:23:39;;;;;;;30.70;20.90;;;;;;;8.84;86.23;100718.98;103195;1254;98476;-76
2024/02/29 10:26:07;;;;;;;33.80;21.30;;;;;;;8.82;86.14;100715.56;103087;1257;138461;-74
2024/02/29 10:28:34;;;;;;;31.70;21.30;;;;;;;8.78;86.30;100712.46;103198;1258;97796;-72
2024/02/29 10:31:01;;;;;;;31.90;21.20;;;;;;;8.75;86.33;100707.15;103141;1254;110933;-72
2024/02/29 10:33:29;;;;;;;31.20;21.00;;;;;;;8.72;86.41;100707.55;103221;1253;107804;-75
2024/02/29 10:35:57;;;;;;;33.60;21.50;;;;;;;8.70;86.64;100698.23;103203;1257;126516;-69
2024/02/29 10:38:24;;;;;;;34.00;21.60;;;;;;;8.73;86.83;100695.77;103366;1254;138803;-70
2024/02/29 10:41:01;;;;;;;38.80;22.10;;;;;;;8.76;87.01;100691.18;103262;1253;97721;-75
2024/02/29 10:43:31;;;;;;;35.40;21.40;;;;;;;8.79;87.18;100686.29;103248;1253;138792;-74
2024/02/29 10:46:04;;;;;;;29.20;20.40;;;;;;;8.81;87.16;100684.53;103624;1253;107616;-72
2024/02/29 10:48:42;;;;;;;32.80;21.40;;;;;;;8.82;87.21;100682.97;103287;1253;97820;-74
2024/02/29 10:51:16;;;;;;;34.30;22.30;;;;;;;8.81;87.25;100676.91;103052;1254;138563;-74
2024/02/29 10:53:49;;;;;;;34.70;22.60;;;;;;;8.84;87.30;100674.77;103136;1258;97839;-73
2024/02/29 10:56:23;;;;;;;33.80;21.20;;;;;;;8.86;87.38;100672.12;102989;1255;139513;-73
2024/02/29 10:58:58;;;;;;;34.10;22.80;;;;;;;8.86;87.28;100671.79;103090;1256;107124;-73
2024/02/29 11:01:26;;;;;;;36.10;22.60;;;;;;;8.87;87.36;100668.46;103018;1254;139944;-75
2024/02/29 11:03:54;;;;;;;38.50;23.10;;;;;;;8.86;87.23;100667.09;103239;1254;107685;-73
2024/02/29 11:06:22;;;;;;;37.10;23.50;;;;;;;8.83;87.21;100665.08;103103;1254;96266;-73